ADDS METAR Data

Data at: 0515 UTC 19 Jan 2018

METAR for:CYFC (Fredericton Intl, NB, CN)
Text:CYFC 190500Z AUTO 00000KT 9SM CLR M14/M16 A2981 RMK SLP098
Temperature:-14.0°C ( 7°F)
Dewpoint:-16.0°C ( 3°F) [RH = 85%]
Pressure (altimeter):29.81 inches Hg (1009.6 mb) [Sea level pressure: 1009.8 mb]
Winds:calm
Visibility: 9 sm ( 14 km)
Ceiling:at least 12,000 feet AGL
Clouds:sky clear below 12,000 feet AGL